Time;durP1;ratioP1;P1;durP2;ratioP2;P2;SDS_P1;SDS_P2;PMS_P1;PMS_P2;Temp;Humidity;BMP_temperature;BMP_pressure;BME280_temperature;BME280_humidity;BME280_pressure;Samples;Min_cycle;Max_cycle;Signal;HPM_P1;HPM_P2
2022/10/04 00:00:12;;;;;;;30.20;14.27;;;;;;;;;;4979426;28;20046;-66
2022/10/04 00:02:43;;;;;;;34.92;14.85;;;;;;;;;;4982550;28;20042;-66
2022/10/04 00:05:13;;;;;;;31.02;15.63;;;;;;;;;;4981629;28;20082;-67
2022/10/04 00:07:44;;;;;;;30.77;14.57;;;;;;;;;;4979195;28;20053;-66
2022/10/04 00:10:20;;;;;;;27.17;15.43;;;;;;;;;;4980402;28;20050;-66
2022/10/04 00:12:47;;;;;;;28.80;14.73;;;;;;;;;;4979499;28;20054;-65
2022/10/04 00:15:18;;;;;;;36.22;15.02;;;;;;;;;;4977313;28;20145;-66
2022/10/04 00:17:45;;;;;;;25.63;14.95;;;;;;;;;;4960563;28;20042;-67
2022/10/04 00:20:30;;;;;;;32.33;14.98;;;;;;;;;;4977571;28;20034;-66
2022/10/04 00:23:28;;;;;;;23.35;14.40;;;;;;;;;;4975403;28;20093;-66
2022/10/04 00:25:56;;;;;;;27.67;13.82;;;;;;;;;;4977531;28;20138;-67
2022/10/04 00:28:25;;;;;;;31.30;14.02;;;;;;;;;;4976615;28;20061;-66
2022/10/04 00:31:06;;;;;;;29.85;14.07;;;;;;;;;;4977029;28;20038;-67
2022/10/04 00:33:35;;;;;;;21.90;13.25;;;;;;;;;;4977341;28;20034;-67
2022/10/04 00:36:21;;;;;;;25.67;13.48;;;;;;;;;;4975035;28;20379;-67
2022/10/04 00:39:03;;;;;;;28.38;13.43;;;;;;;;;;4976480;28;20121;-66
2022/10/04 00:41:30;;;;;;;28.35;12.20;;;;;;;;;;4977068;28;20486;-66
2022/10/04 00:43:57;;;;;;;25.80;12.25;;;;;;;;;;4974440;28;20042;-66
2022/10/04 00:46:24;;;;;;;29.45;12.60;;;;;;;;;;4978906;28;20046;-66
2022/10/04 00:48:52;;;;;;;32.88;14.00;;;;;;;;;;4977614;28;20087;-66
2022/10/04 00:51:19;;;;;;;27.33;14.38;;;;;;;;;;4977574;28;20076;-66
2022/10/04 00:53:51;;;;;;;27.77;13.75;;;;;;;;;;4976955;28;20457;-67
2022/10/04 00:56:25;;;;;;;31.10;14.57;;;;;;;;;;4973039;28;20046;-67
2022/10/04 00:58:56;;;;;;;27.80;15.23;;;;;;;;;;4977777;28;20435;-67
2022/10/04 01:01:23;;;;;;;29.17;14.52;;;;;;;;;;4978282;28;20082;-66
2022/10/04 01:03:51;;;;;;;31.65;15.27;;;;;;;;;;4978451;28;20440;-66
2022/10/04 01:06:17;;;;;;;32.45;15.80;;;;;;;;;;4979435;28;20042;-67
2022/10/04 01:08:49;;;;;;;30.27;15.73;;;;;;;;;;4975176;28;20042;-66
2022/10/04 01:11:19;;;;;;;35.25;16.65;;;;;;;;;;4974634;28;20053;-66
2022/10/04 01:13:49;;;;;;;29.58;15.63;;;;;;;;;;4976327;28;20118;-67
2022/10/04 01:16:18;;;;;;;29.63;14.70;;;;;;;;;;4978668;28;20133;-67
2022/10/04 01:18:45;;;;;;;25.30;15.48;;;;;;;;;;4974828;28;20569;-66
2022/10/04 01:21:20;;;;;;;32.20;15.30;;;;;;;;;;4976758;28;20613;-67
2022/10/04 01:23:49;;;;;;;32.92;13.45;;;;;;;;;;4976147;28;20038;-66
2022/10/04 01:26:28;;;;;;;28.67;13.93;;;;;;;;;;4974504;28;20046;-66
2022/10/04 01:28:58;;;;;;;26.00;12.80;;;;;;;;;;4976891;28;20397;-66
2022/10/04 01:31:26;;;;;;;24.42;13.35;;;;;;;;;;4977641;28;20192;-66
2022/10/04 01:33:53;;;;;;;27.00;14.07;;;;;;;;;;4976617;28;20042;-66
2022/10/04 01:36:19;;;;;;;27.40;12.90;;;;;;;;;;4958188;28;20096;-66
2022/10/04 01:38:46;;;;;;;26.05;14.23;;;;;;;;;;4979367;28;20042;-66
2022/10/04 01:41:14;;;;;;;24.15;13.13;;;;;;;;;;4979267;28;20050;-66
2022/10/04 01:43:42;;;;;;;26.15;13.18;;;;;;;;;;4978627;28;21886;-66
2022/10/04 01:46:11;;;;;;;29.38;14.00;;;;;;;;;;4982280;28;20038;-66
2022/10/04 01:48:38;;;;;;;22.95;12.82;;;;;;;;;;4978474;28;20137;-66
2022/10/04 01:51:11;;;;;;;22.95;12.73;;;;;;;;;;4981682;28;20073;-66
2022/10/04 01:53:37;;;;;;;;;;;;;;;;;;4978144;28;20042;-66
2022/10/04 01:56:05;;;;;;;22.55;13.05;;;;;;;;;;4981541;28;20431;-67
2022/10/04 01:58:34;;;;;;;28.05;13.65;;;;;;;;;;4975326;28;20058;-66
2022/10/04 02:01:05;;;;;;;29.05;12.35;;;;;;;;;;4976500;28;20133;-67
2022/10/04 02:03:34;;;;;;;24.40;12.80;;;;;;;;;;4980389;28;20046;-71
2022/10/04 02:06:02;;;;;;;24.58;11.90;;;;;;;;;;4978787;28;20070;-66
2022/10/04 02:08:32;;;;;;;30.88;11.98;;;;;;;;;;4977622;28;20058;-67
2022/10/04 02:11:00;;;;;;;24.38;12.32;;;;;;;;;;4979293;28;20414;-67
2022/10/04 02:13:28;;;;;;;23.70;12.63;;;;;;;;;;4981278;28;20054;-66
2022/10/04 02:15:55;;;;;;;23.73;12.13;;;;;;;;;;4979712;28;20057;-66
2022/10/04 02:18:23;;;;;;;34.35;12.60;;;;;;;;;;4982230;28;20053;-66
2022/10/04 02:20:50;;;;;;;25.95;13.43;;;;;;;;;;4978150;28;20046;-67
2022/10/04 02:23:17;;;;;;;27.80;13.25;;;;;;;;;;4978736;28;20061;-66
2022/10/04 02:25:44;;;;;;;30.67;12.65;;;;;;;;;;4977642;28;20042;-67
2022/10/04 02:28:12;;;;;;;26.77;13.18;;;;;;;;;;4978602;28;20050;-66
2022/10/04 02:30:39;;;;;;;20.77;12.00;;;;;;;;;;4979780;28;20058;-67
2022/10/04 02:33:06;;;;;;;23.73;12.30;;;;;;;;;;4979095;28;20046;-66
2022/10/04 02:35:34;;;;;;;35.00;14.02;;;;;;;;;;4975142;28;20070;-67
2022/10/04 02:38:05;;;;;;;31.80;12.55;;;;;;;;;;4978192;28;20069;-66
2022/10/04 02:40:35;;;;;;;32.47;14.52;;;;;;;;;;4976028;28;20114;-66
2022/10/04 02:43:04;;;;;;;29.50;14.32;;;;;;;;;;4970307;28;20057;-67
2022/10/04 02:45:37;;;;;;;29.92;14.95;;;;;;;;;;4979325;28;20411;-67
2022/10/04 02:48:10;;;;;;;26.65;14.73;;;;;;;;;;4977178;28;20138;-67
2022/10/04 02:50:41;;;;;;;27.15;14.00;;;;;;;;;;4979222;28;20149;-67
2022/10/04 02:53:18;;;;;;;21.05;12.50;;;;;;;;;;4972833;28;21286;-67
2022/10/04 02:55:45;;;;;;;23.98;13.60;;;;;;;;;;4977640;28;20116;-67
2022/10/04 02:58:14;;;;;;;24.25;13.90;;;;;;;;;;4977397;28;20046;-67
2022/10/04 03:00:48;;;;;;;25.10;13.95;;;;;;;;;;4982430;28;20053;-67
2022/10/04 03:03:15;;;;;;;24.42;13.70;;;;;;;;;;4979499;28;20053;-67
2022/10/04 03:05:43;;;;;;;23.80;12.43;;;;;;;;;;4980370;28;20422;-67
2022/10/04 03:08:10;;;;;;;27.17;13.20;;;;;;;;;;4970342;28;20051;-67
2022/10/04 03:10:37;;;;;;;23.80;12.40;;;;;;;;;;4959255;28;20078;-67
2022/10/04 03:13:03;;;;;;;26.45;13.70;;;;;;;;;;4940846;28;20052;-67
2022/10/04 03:15:30;;;;;;;25.33;12.90;;;;;;;;;;4960273;28;20085;-67
2022/10/04 03:17:56;;;;;;;25.10;13.85;;;;;;;;;;4960713;28;20046;-67
2022/10/04 03:20:23;;;;;;;22.33;12.98;;;;;;;;;;4957372;28;20042;-67
2022/10/04 03:22:54;;;;;;;26.27;14.00;;;;;;;;;;4959133;28;20110;-67
2022/10/04 03:25:22;;;;;;;26.85;13.73;;;;;;;;;;4941786;28;20620;-67
2022/10/04 03:27:49;;;;;;;30.90;13.40;;;;;;;;;;4960749;28;20137;-67
2022/10/04 03:30:16;;;;;;;31.67;14.38;;;;;;;;;;4939788;28;20047;-67
2022/10/04 03:32:42;;;;;;;26.98;14.30;;;;;;;;;;4940494;28;20042;-67
2022/10/04 03:35:17;;;;;;;25.23;14.32;;;;;;;;;;4957817;28;20148;-67
2022/10/04 03:37:44;;;;;;;30.50;13.98;;;;;;;;;;4942229;28;20082;-67
2022/10/04 03:40:11;;;;;;;25.55;14.98;;;;;;;;;;4942619;28;20173;-67
2022/10/04 03:42:38;;;;;;;24.52;15.45;;;;;;;;;;4958883;28;20194;-67
2022/10/04 03:45:07;;;;;;;23.70;13.65;;;;;;;;;;4941548;28;20046;-67
2022/10/04 03:47:35;;;;;;;26.35;15.43;;;;;;;;;;4943689;28;20054;-67
2022/10/04 03:50:06;;;;;;;29.02;15.98;;;;;;;;;;4942723;28;20162;-67
2022/10/04 03:52:33;;;;;;;25.92;14.40;;;;;;;;;;4957983;28;20058;-67
2022/10/04 03:55:01;;;;;;;28.85;15.45;;;;;;;;;;4956598;28;20050;-67
2022/10/04 03:57:28;;;;;;;29.67;17.27;;;;;;;;;;4942442;28;21635;-67
2022/10/04 03:59:54;;;;;;;30.15;16.63;;;;;;;;;;4959100;28;20138;-67
2022/10/04 04:02:29;;;;;;;29.00;16.77;;;;;;;;;;4959810;28;20382;-67
2022/10/04 04:05:05;;;;;;;31.50;16.55;;;;;;;;;;4943041;28;20597;-67
2022/10/04 04:07:36;;;;;;;31.25;16.75;;;;;;;;;;4947040;28;20148;-67
2022/10/04 04:10:09;;;;;;;27.77;16.38;;;;;;;;;;4975338;28;20594;-67
2022/10/04 04:12:40;;;;;;;42.67;18.13;;;;;;;;;;4974119;28;20085;-67
2022/10/04 04:15:11;;;;;;;33.55;17.90;;;;;;;;;;4978082;28;20154;-67
2022/10/04 04:17:40;;;;;;;38.55;18.40;;;;;;;;;;4979925;28;20053;-67
2022/10/04 04:20:15;;;;;;;33.45;19.52;;;;;;;;;;4977422;28;20096;-67
2022/10/04 04:22:43;;;;;;;36.03;19.92;;;;;;;;;;4975893;28;20397;-67
2022/10/04 04:25:13;;;;;;;42.00;21.48;;;;;;;;;;4974062;28;20042;-67
2022/10/04 04:27:41;;;;;;;39.72;20.80;;;;;;;;;;4976044;28;20050;-67
2022/10/04 04:30:08;;;;;;;36.05;20.38;;;;;;;;;;4978547;28;20065;-67
2022/10/04 04:32:39;;;;;;;37.83;19.00;;;;;;;;;;4976651;28;20054;-67
2022/10/04 04:35:07;;;;;;;31.92;20.08;;;;;;;;;;4975778;28;20153;-67
2022/10/04 04:37:34;;;;;;;33.72;19.63;;;;;;;;;;4976956;28;20085;-67
2022/10/04 04:40:21;;;;;;;36.78;20.10;;;;;;;;;;4975615;28;20474;-67
2022/10/04 04:42:48;;;;;;;36.72;20.23;;;;;;;;;;4973269;28;20061;-67
2022/10/04 04:45:21;;;;;;;41.80;20.85;;;;;;;;;;4977435;28;20038;-68
2022/10/04 04:47:49;;;;;;;35.58;19.50;;;;;;;;;;4977952;28;20050;-67
2022/10/04 04:50:18;;;;;;;37.90;21.25;;;;;;;;;;4978651;28;20088;-67
2022/10/04 04:52:47;;;;;;;38.95;20.17;;;;;;;;;;4980598;28;20069;-67
2022/10/04 04:55:23;;;;;;;51.60;21.13;;;;;;;;;;4981312;28;20047;-67
2022/10/04 04:57:50;;;;;;;33.55;20.48;;;;;;;;;;4982446;28;20038;-67
2022/10/04 05:00:18;;;;;;;33.63;19.88;;;;;;;;;;4980684;28;20038;-67
2022/10/04 05:02:53;;;;;;;37.28;19.90;;;;;;;;;;4976661;28;20054;-67
2022/10/04 05:05:22;;;;;;;36.03;19.35;;;;;;;;;;4978472;28;20054;-67
2022/10/04 05:07:49;;;;;;;31.52;19.52;;;;;;;;;;4982735;28;20046;-67
2022/10/04 05:10:20;;;;;;;28.48;18.60;;;;;;;;;;4965175;28;20521;-67
2022/10/04 05:12:46;;;;;;;35.88;18.77;;;;;;;;;;4981058;28;20169;-67
2022/10/04 05:15:13;;;;;;;35.63;19.60;;;;;;;;;;4981677;28;20116;-67
2022/10/04 05:17:39;;;;;;;39.78;20.17;;;;;;;;;;4981791;28;20397;-67
2022/10/04 05:20:06;;;;;;;38.88;20.20;;;;;;;;;;4986678;28;20057;-67
2022/10/04 05:22:33;;;;;;;36.25;19.20;;;;;;;;;;4985652;28;20116;-66
2022/10/04 05:25:03;;;;;;;37.50;20.33;;;;;;;;;;4985172;28;20049;-67
2022/10/04 05:27:32;;;;;;;35.65;19.23;;;;;;;;;;4969322;28;20116;-67
2022/10/04 05:30:07;;;;;;;36.83;20.20;;;;;;;;;;4968398;28;20706;-67
2022/10/04 05:32:40;;;;;;;35.13;18.60;;;;;;;;;;4972105;28;20050;-66
2022/10/04 05:35:16;;;;;;;31.45;18.35;;;;;;;;;;4972676;28;20053;-66
2022/10/04 05:37:52;;;;;;;34.28;19.92;;;;;;;;;;4992139;28;20398;-66
2022/10/04 05:40:31;;;;;;;33.35;20.35;;;;;;;;;;4991611;28;20418;-66
2022/10/04 05:42:58;;;;;;;36.55;20.23;;;;;;;;;;4993057;28;20042;-66
2022/10/04 05:45:26;;;;;;;35.40;21.50;;;;;;;;;;4990138;28;20121;-67
2022/10/04 05:47:56;;;;;;;41.88;24.10;;;;;;;;;;4974832;28;20058;-67
2022/10/04 05:50:33;;;;;;;43.92;25.00;;;;;;;;;;4975057;28;20038;-67
2022/10/04 05:53:18;;;;;;;42.55;23.08;;;;;;;;;;4990654;28;20150;-66
2022/10/04 05:55:54;;;;;;;38.75;23.02;;;;;;;;;;4992152;28;20053;-66
2022/10/04 05:58:24;;;;;;;41.63;23.77;;;;;;;;;;4991787;28;20391;-67
2022/10/04 06:00:59;;;;;;;45.00;23.75;;;;;;;;;;4991464;28;20405;-67
2022/10/04 06:03:34;;;;;;;34.28;22.77;;;;;;;;;;4991920;28;20042;-67
2022/10/04 06:06:01;;;;;;;40.95;22.58;;;;;;;;;;4990602;28;20054;-67
2022/10/04 06:08:42;;;;;;;36.53;23.05;;;;;;;;;;4991868;28;20050;-66
2022/10/04 06:11:18;;;;;;;34.40;22.83;;;;;;;;;;4992135;28;20452;-66
2022/10/04 06:13:54;;;;;;;36.97;23.05;;;;;;;;;;4991112;28;20402;-66
2022/10/04 06:16:37;;;;;;;40.38;23.80;;;;;;;;;;4992267;28;20034;-66
2022/10/04 06:19:09;;;;;;;39.08;24.77;;;;;;;;;;4989307;28;20585;-66
2022/10/04 06:21:45;;;;;;;48.08;25.02;;;;;;;;;;4989806;28;20140;-66
2022/10/04 06:24:16;;;;;;;49.35;24.85;;;;;;;;;;4990570;28;20061;-66
2022/10/04 06:26:45;;;;;;;38.97;24.25;;;;;;;;;;4990782;28;20089;-66
2022/10/04 06:29:13;;;;;;;36.42;23.95;;;;;;;;;;4989656;28;20494;-66
2022/10/04 06:31:43;;;;;;;34.92;23.75;;;;;;;;;;4990501;28;20073;-66
2022/10/04 06:34:21;;;;;;;41.25;24.65;;;;;;;;;;4990784;28;20371;-66
2022/10/04 06:36:56;;;;;;;41.67;24.95;;;;;;;;;;4985976;28;20034;-66
2022/10/04 06:39:28;;;;;;;40.20;25.77;;;;;;;;;;4988953;28;20177;-66
2022/10/04 06:42:04;;;;;;;39.15;24.48;;;;;;;;;;4987502;28;20560;-66
2022/10/04 06:44:35;;;;;;;42.40;24.73;;;;;;;;;;4987481;28;20394;-66
2022/10/04 06:47:01;;;;;;;43.80;25.85;;;;;;;;;;4987498;28;20113;-66
2022/10/04 06:49:35;;;;;;;48.72;26.55;;;;;;;;;;4988061;28;20137;-66
2022/10/04 06:52:01;;;;;;;47.20;26.50;;;;;;;;;;4987789;28;20031;-66
2022/10/04 06:54:30;;;;;;;47.58;27.88;;;;;;;;;;4987891;28;20514;-66
2022/10/04 06:57:14;;;;;;;47.17;28.15;;;;;;;;;;4988988;28;20057;-67
2022/10/04 06:59:40;;;;;;;;;;;;;;;;;;4991556;28;20097;-67
2022/10/04 07:02:14;;;;;;;42.28;27.52;;;;;;;;;;4972728;28;22038;-67
2022/10/04 07:04:49;;;;;;;53.53;30.27;;;;;;;;;;4989773;28;20054;-67
2022/10/04 07:07:34;;;;;;;40.50;26.23;;;;;;;;;;4991458;28;20061;-67
2022/10/04 07:10:15;;;;;;;42.38;23.58;;;;;;;;;;4989087;28;20104;-66
2022/10/04 07:12:43;;;;;;;38.50;26.10;;;;;;;;;;4991660;28;20405;-66
2022/10/04 07:15:17;;;;;;;36.65;24.58;;;;;;;;;;4989600;28;20109;-67
2022/10/04 07:17:45;;;;;;;36.67;22.98;;;;;;;;;;4973758;28;20133;-67
2022/10/04 07:20:20;;;;;;;32.38;22.23;;;;;;;;;;4989296;28;20057;-66
2022/10/04 07:22:52;;;;;;;34.95;21.52;;;;;;;;;;4990061;28;20126;-66
2022/10/04 07:25:24;;;;;;;33.97;23.35;;;;;;;;;;4991976;28;20049;-67
2022/10/04 07:29:19;;;;;;;35.63;22.50;;;;;;;;;;4988782;28;20141;-68
2022/10/04 07:30:41;;;;;;;35.20;24.45;;;;;;;;;;4989570;28;20050;-68
2022/10/04 07:33:08;;;;;;;38.92;21.75;;;;;;;;;;4989940;28;20490;-69
2022/10/04 07:35:38;;;;;;;33.78;21.80;;;;;;;;;;4988340;28;20096;-68
2022/10/04 07:38:10;;;;;;;35.13;22.08;;;;;;;;;;4988159;28;20042;-68
2022/10/04 07:40:38;;;;;;;35.75;21.65;;;;;;;;;;4988314;28;20042;-68
2022/10/04 07:43:07;;;;;;;32.45;19.90;;;;;;;;;;4989929;28;20042;-68
2022/10/04 07:45:36;;;;;;;31.15;19.40;;;;;;;;;;4989675;28;20110;-68
2022/10/04 07:48:13;;;;;;;36.35;20.65;;;;;;;;;;4989180;28;20065;-68
2022/10/04 07:50:44;;;;;;;33.47;19.60;;;;;;;;;;4985305;28;20042;-69
2022/10/04 07:53:16;;;;;;;31.20;19.75;;;;;;;;;;4986068;28;20053;-69
2022/10/04 07:56:05;;;;;;;30.23;19.40;;;;;;;;;;4986586;28;20037;-68
2022/10/04 07:58:50;;;;;;;29.25;19.05;;;;;;;;;;4982901;28;20061;-67
2022/10/04 08:01:22;;;;;;;30.80;20.20;;;;;;;;;;4985076;28;20124;-68
2022/10/04 08:03:56;;;;;;;35.03;18.77;;;;;;;;;;4986425;28;20050;-67
2022/10/04 08:06:26;;;;;;;27.23;18.65;;;;;;;;;;4981879;28;20054;-68
2022/10/04 08:09:16;;;;;;;29.52;19.33;;;;;;;;;;4985860;28;20062;-68
2022/10/04 08:12:01;;;;;;;34.45;20.40;;;;;;;;;;4987387;28;20050;-69
2022/10/04 08:14:49;;;;;;;29.95;18.00;;;;;;;;;;4987458;28;20046;-68
2022/10/04 08:17:19;;;;;;;28.05;17.77;;;;;;;;;;4985192;28;20093;-68
2022/10/04 08:19:49;;;;;;;27.90;18.08;;;;;;;;;;4986542;28;20051;-69
2022/10/04 08:22:22;;;;;;;25.80;18.27;;;;;;;;;;4971783;28;20104;-69
2022/10/04 08:24:57;;;;;;;28.08;15.90;;;;;;;;;;4989346;28;20088;-69
2022/10/04 08:27:38;;;;;;;24.15;16.73;;;;;;;;;;4988626;28;20045;-68
2022/10/04 08:30:11;;;;;;;31.15;16.58;;;;;;;;;;4986476;28;20514;-68
2022/10/04 08:32:42;;;;;;;24.50;15.90;;;;;;;;;;4988077;28;20198;-68
2022/10/04 08:35:24;;;;;;;25.15;18.00;;;;;;;;;;4989342;28;20113;-68
2022/10/04 08:37:52;;;;;;;28.17;18.13;;;;;;;;;;4987417;28;20049;-68
2022/10/04 08:40:35;;;;;;;33.55;19.13;;;;;;;;;;4964657;28;20057;-69
2022/10/04 08:43:07;;;;;;;36.67;18.23;;;;;;;;;;4967373;28;20133;-68
2022/10/04 08:45:34;;;;;;;25.83;16.95;;;;;;;;;;4983328;28;20042;-68
2022/10/04 08:48:10;;;;;;;26.73;17.75;;;;;;;;;;4983196;28;20064;-68
2022/10/04 08:50:47;;;;;;;26.20;17.40;;;;;;;;;;4981747;28;20046;-68
2022/10/04 08:53:25;;;;;;;29.02;17.88;;;;;;;;;;4985851;28;20121;-68
2022/10/04 08:55:59;;;;;;;28.42;15.18;;;;;;;;;;4986325;28;20073;-68
2022/10/04 08:58:38;;;;;;;26.17;15.55;;;;;;;;;;4985986;28;20042;-68
2022/10/04 09:01:28;;;;;;;30.00;16.67;;;;;;;;;;4984612;28;20481;-68
2022/10/04 09:04:00;;;;;;;22.40;15.60;;;;;;;;;;4982373;28;20043;-68
2022/10/04 09:06:29;;;;;;;24.70;16.38;;;;;;;;;;4983870;28;20043;-68
2022/10/04 09:09:11;;;;;;;30.30;17.15;;;;;;;;;;4988194;28;20057;-68
2022/10/04 09:11:40;;;;;;;29.63;16.52;;;;;;;;;;4992785;28;20089;-68
2022/10/04 09:14:16;;;;;;;25.65;15.02;;;;;;;;;;4992382;28;20419;-68
2022/10/04 09:16:45;;;;;;;24.80;15.85;;;;;;;;;;4992021;28;20381;-68
2022/10/04 09:19:11;;;;;;;31.15;16.65;;;;;;;;;;4990994;28;20456;-68
2022/10/04 09:21:42;;;;;;;24.40;16.52;;;;;;;;;;4991074;28;20129;-68
2022/10/04 09:24:20;;;;;;;24.75;15.90;;;;;;;;;;4990949;28;20091;-68
2022/10/04 09:26:52;;;;;;;24.15;17.13;;;;;;;;;;4993129;28;20109;-68
2022/10/04 09:29:28;;;;;;;23.15;15.88;;;;;;;;;;4987685;28;20042;-68
2022/10/04 09:32:01;;;;;;;23.77;16.88;;;;;;;;;;4992535;28;20042;-68
2022/10/04 09:34:45;;;;;;;28.73;18.02;;;;;;;;;;4992363;28;20058;-68
2022/10/04 09:37:29;;;;;;;27.73;18.00;;;;;;;;;;4989248;28;20053;-68
2022/10/04 09:39:58;;;;;;;29.30;18.87;;;;;;;;;;4988959;28;20504;-68
2022/10/04 09:42:35;;;;;;;26.15;18.80;;;;;;;;;;4991204;28;20057;-68
2022/10/04 09:45:10;;;;;;;28.10;18.52;;;;;;;;;;4988409;28;20043;-68
2022/10/04 09:47:44;;;;;;;29.10;18.50;;;;;;;;;;4992449;28;20080;-68
2022/10/04 09:50:25;;;;;;;25.30;17.98;;;;;;;;;;4991011;28;20047;-68
2022/10/04 09:52:57;;;;;;;24.48;18.45;;;;;;;;;;4987357;28;20054;-68
2022/10/04 09:55:33;;;;;;;27.50;17.65;;;;;;;;;;4986366;28;20643;-68
2022/10/04 09:58:14;;;;;;;24.60;17.13;;;;;;;;;;4986200;28;20133;-68
2022/10/04 10:00:54;;;;;;;28.30;18.65;;;;;;;;;;4987614;28;20418;-68
2022/10/04 10:03:20;;;;;;;24.08;18.63;;;;;;;;;;4986854;28;20134;-68
2022/10/04 10:05:54;;;;;;;27.23;18.63;;;;;;;;;;4988154;28;20045;-68
2022/10/04 10:08:20;;;;;;;;;;;;;;;;;;4988632;28;20512;-68
2022/10/04 10:14:00;;;;;;;27.85;19.58;;;;;;;;;;4984379;28;20519;-68
2022/10/04 10:16:28;;;;;;;27.45;18.27;;;;;;;;;;4986638;28;20073;-68
2022/10/04 10:18:55;;;;;;;28.27;19.95;;;;;;;;;;4985940;28;20050;-68
2022/10/04 10:21:40;;;;;;;28.60;18.98;;;;;;;;;;4986933;28;20054;-68
2022/10/04 10:24:21;;;;;;;29.40;19.42;;;;;;;;;;4988357;28;20065;-68
2022/10/04 10:26:51;;;;;;;34.40;20.50;;;;;;;;;;4986100;28;20053;-68
2022/10/04 10:29:31;;;;;;;28.33;17.88;;;;;;;;;;4986944;28;20046;-68
2022/10/04 10:32:03;;;;;;;30.00;18.20;;;;;;;;;;4985727;28;20081;-68
2022/10/04 10:34:51;;;;;;;30.30;18.25;;;;;;;;;;4983609;28;20502;-68
2022/10/04 10:37:40;;;;;;;23.73;15.30;;;;;;;;;;4986954;28;20053;-68
2022/10/04 10:40:28;;;;;;;18.98;12.60;;;;;;;;;;4985846;28;20042;-68
2022/10/04 10:43:11;;;;;;;19.00;12.10;;;;;;;;;;4987717;28;20046;-68
2022/10/04 10:45:55;;;;;;;19.23;11.88;;;;;;;;;;4986683;28;20042;-68
2022/10/04 10:48:35;;;;;;;19.55;12.27;;;;;;;;;;4986481;28;20057;-68
2022/10/04 10:51:29;;;;;;;25.15;13.23;;;;;;;;;;4986821;28;21022;-68
2022/10/04 10:53:56;;;;;;;;;;;;;;;;;;4986587;28;20093;-68
2022/10/04 10:56:23;;;;;;;19.95;12.27;;;;;;;;;;4987107;28;20365;-68
2022/10/04 10:58:50;;;;;;;19.02;12.25;;;;;;;;;;4989010;28;20089;-69
2022/10/04 11:01:22;;;;;;;19.25;11.55;;;;;;;;;;4987933;28;20137;-68
2022/10/04 11:03:48;;;;;;;17.70;10.05;;;;;;;;;;4988413;28;20054;-69
2022/10/04 11:06:17;;;;;;;14.40;9.23;;;;;;;;;;4988563;28;20097;-69
2022/10/04 11:08:55;;;;;;;17.50;9.45;;;;;;;;;;4986994;28;20077;-69
2022/10/04 11:11:40;;;;;;;15.02;9.07;;;;;;;;;;4987924;28;20096;-69
2022/10/04 11:14:32;;;;;;;11.38;7.90;;;;;;;;;;4987609;28;20293;-69
2022/10/04 11:16:59;;;;;;;13.98;8.30;;;;;;;;;;4985386;28;20062;-68
2022/10/04 11:19:28;;;;;;;13.68;8.52;;;;;;;;;;4988039;28;20053;-68
2022/10/04 11:21:54;;;;;;;21.35;10.85;;;;;;;;;;4987042;28;20054;-70
2022/10/04 11:24:43;;;;;;;13.70;8.68;;;;;;;;;;4985913;28;20490;-69
2022/10/04 11:27:18;;;;;;;15.00;8.23;;;;;;;;;;4986650;28;20061;-69
2022/10/04 11:29:54;;;;;;;15.63;7.85;;;;;;;;;;4983398;28;20089;-68
2022/10/04 11:32:30;;;;;;;12.25;7.55;;;;;;;;;;4983444;28;20470;-68
2022/10/04 11:35:13;;;;;;;12.45;7.50;;;;;;;;;;4984057;28;20443;-67
2022/10/04 11:37:43;;;;;;;17.05;7.90;;;;;;;;;;4985765;28;20043;-68
2022/10/04 11:40:09;;;;;;;15.00;8.13;;;;;;;;;;4985940;28;20046;-66
2022/10/04 11:42:35;;;;;;;13.23;8.20;;;;;;;;;;4985143;28;20046;-66
2022/10/04 11:45:14;;;;;;;12.00;8.07;;;;;;;;;;4985653;28;20438;-67
2022/10/04 11:47:48;;;;;;;12.95;7.65;;;;;;;;;;4988498;28;20046;-66
2022/10/04 11:50:27;;;;;;;13.48;7.72;;;;;;;;;;4987115;28;20631;-66
2022/10/04 11:53:12;;;;;;;15.93;8.98;;;;;;;;;;4985286;28;20034;-66
2022/10/04 11:56:03;;;;;;;12.88;7.82;;;;;;;;;;4985616;28;20053;-66
2022/10/04 11:58:35;;;;;;;14.05;8.65;;;;;;;;;;4986595;28;20061;-66
2022/10/04 12:01:14;;;;;;;15.10;8.45;;;;;;;;;;4985693;28;20061;-66
2022/10/04 12:04:08;;;;;;;12.63;7.57;;;;;;;;;;4984580;28;20050;-66
2022/10/04 12:07:01;;;;;;;14.57;8.65;;;;;;;;;;4988397;28;20046;-66
2022/10/04 12:09:28;;;;;;;13.95;8.27;;;;;;;;;;4986472;28;20120;-66
2022/10/04 12:15:07;;;;;;;10.02;6.07;;;;;;;;;;4983631;28;20046;-66
2022/10/04 12:17:51;;;;;;;13.88;7.90;;;;;;;;;;4985733;28;20067;-66
2022/10/04 12:20:30;;;;;;;13.65;7.65;;;;;;;;;;4985841;28;20509;-66
2022/10/04 12:23:02;;;;;;;13.48;7.90;;;;;;;;;;4984722;28;20066;-66
2022/10/04 12:25:41;;;;;;;12.27;6.90;;;;;;;;;;4984889;28;20089;-66
2022/10/04 12:28:22;;;;;;;8.68;5.50;;;;;;;;;;4985879;28;20050;-66
2022/10/04 12:30:56;;;;;;;10.20;6.80;;;;;;;;;;4986288;28;20510;-66
2022/10/04 12:33:33;;;;;;;11.80;6.80;;;;;;;;;;4984351;28;20129;-66
2022/10/04 12:36:03;;;;;;;13.00;6.88;;;;;;;;;;4984952;28;20129;-66
2022/10/04 12:38:35;;;;;;;11.63;6.43;;;;;;;;;;4986343;28;20044;-66
2022/10/04 12:41:18;;;;;;;8.55;5.40;;;;;;;;;;4983520;28;20113;-66
2022/10/04 12:43:44;;;;;;;;;;;;;;;;;;4985290;28;20375;-66
2022/10/04 12:46:10;;;;;;;8.90;5.45;;;;;;;;;;4985439;28;19930;-66
2022/10/04 12:48:56;;;;;;;8.02;5.35;;;;;;;;;;4985871;28;20047;-66
2022/10/04 12:51:41;;;;;;;8.75;6.00;;;;;;;;;;4986020;28;20517;-66
2022/10/04 12:54:07;;;;;;;9.27;5.65;;;;;;;;;;4981246;28;20038;-66
2022/10/04 12:56:44;;;;;;;10.00;5.15;;;;;;;;;;4985018;28;20075;-66
2022/10/04 12:59:29;;;;;;;8.65;4.55;;;;;;;;;;4985592;28;20660;-66
2022/10/04 13:01:56;;;;;;;7.95;4.35;;;;;;;;;;4985927;28;20054;-66
2022/10/04 13:04:28;;;;;;;7.88;4.45;;;;;;;;;;4986465;28;20046;-66
2022/10/04 13:07:14;;;;;;;10.68;4.20;;;;;;;;;;4984147;28;20526;-66
2022/10/04 13:09:58;;;;;;;9.15;4.47;;;;;;;;;;4985316;28;20050;-66
2022/10/04 13:12:29;;;;;;;10.15;4.35;;;;;;;;;;4983020;28;20481;-66
2022/10/04 13:15:14;;;;;;;12.07;4.90;;;;;;;;;;4984342;28;20561;-66
2022/10/04 13:17:52;;;;;;;8.43;4.55;;;;;;;;;;4986122;28;20045;-67
2022/10/04 13:20:19;;;;;;;9.73;4.30;;;;;;;;;;4985195;28;20161;-66
2022/10/04 13:22:50;;;;;;;7.32;3.83;;;;;;;;;;4983619;28;20166;-67
2022/10/04 13:25:29;;;;;;;12.38;3.90;;;;;;;;;;4986178;28;20042;-66
2022/10/04 13:28:01;;;;;;;9.38;4.45;;;;;;;;;;4985937;28;20502;-66
2022/10/04 13:30:32;;;;;;;12.50;5.40;;;;;;;;;;4984956;28;20085;-66
2022/10/04 13:33:16;;;;;;;9.55;5.10;;;;;;;;;;4986438;28;20061;-66
2022/10/04 13:35:49;;;;;;;11.48;4.93;;;;;;;;;;4985312;28;20513;-66
2022/10/04 13:38:16;;;;;;;8.60;4.00;;;;;;;;;;4986226;28;20164;-67
2022/10/04 13:40:49;;;;;;;11.65;5.70;;;;;;;;;;4987405;28;20109;-67
2022/10/04 13:43:30;;;;;;;8.75;5.32;;;;;;;;;;4989158;28;20051;-66
2022/10/04 13:46:20;;;;;;;13.13;5.88;;;;;;;;;;4990525;28;20050;-67
2022/10/04 13:48:56;;;;;;;13.90;5.93;;;;;;;;;;4988728;28;20046;-66
2022/10/04 13:51:31;;;;;;;13.50;5.82;;;;;;;;;;4988415;28;20482;-66
2022/10/04 13:57:01;;;;;;;15.07;5.33;;;;;;;;;;4988155;28;20078;-66
2022/10/04 13:59:27;;;;;;;11.18;6.07;;;;;;;;;;4989806;28;20380;-66
2022/10/04 14:02:11;;;;;;;12.48;5.93;;;;;;;;;;4988581;28;21418;-66
2022/10/04 14:04:56;;;;;;;11.57;5.88;;;;;;;;;;4988534;28;20546;-66
2022/10/04 14:07:34;;;;;;;9.98;5.15;;;;;;;;;;4987915;28;20521;-66
2022/10/04 14:10:03;;;;;;;11.65;5.78;;;;;;;;;;4987468;28;20038;-66
2022/10/04 14:12:41;;;;;;;10.60;6.25;;;;;;;;;;4986554;28;20407;-66
2022/10/04 14:15:22;;;;;;;12.77;5.78;;;;;;;;;;4988099;28;20435;-66
2022/10/04 14:18:06;;;;;;;10.55;6.10;;;;;;;;;;4987489;28;20129;-66
2022/10/04 14:20:42;;;;;;;11.18;5.53;;;;;;;;;;4989036;28;20061;-66
2022/10/04 14:23:08;;;;;;;11.57;5.82;;;;;;;;;;4988444;28;20038;-66
2022/10/04 14:25:53;;;;;;;15.55;6.43;;;;;;;;;;4984475;28;20204;-66
2022/10/04 14:28:20;;;;;;;11.57;5.78;;;;;;;;;;4987846;28;20041;-66
2022/10/04 14:30:54;;;;;;;9.13;5.57;;;;;;;;;;4984829;28;20134;-66
2022/10/04 14:33:31;;;;;;;12.48;6.13;;;;;;;;;;4986371;28;20042;-66
2022/10/04 14:36:00;;;;;;;12.10;5.45;;;;;;;;;;4988143;28;20070;-66
2022/10/04 14:38:36;;;;;;;8.73;5.15;;;;;;;;;;4986259;28;20065;-66
2022/10/04 14:41:12;;;;;;;10.77;5.55;;;;;;;;;;4986187;28;20047;-66
2022/10/04 14:44:04;;;;;;;9.60;5.47;;;;;;;;;;4987398;28;20049;-66
2022/10/04 14:46:40;;;;;;;10.80;5.15;;;;;;;;;;4981984;28;20402;-65
2022/10/04 14:49:17;;;;;;;9.38;4.93;;;;;;;;;;4983614;28;20049;-66
2022/10/04 14:51:55;;;;;;;13.18;5.40;;;;;;;;;;4984248;28;20182;-65
2022/10/04 14:54:24;;;;;;;14.38;5.88;;;;;;;;;;4982859;28;20038;-66
2022/10/04 14:56:57;;;;;;;11.18;5.72;;;;;;;;;;4981334;28;20054;-65
2022/10/04 14:59:31;;;;;;;12.48;6.18;;;;;;;;;;4983971;28;20057;-65
2022/10/04 15:01:59;;;;;;;11.10;6.30;;;;;;;;;;4982184;28;20093;-65
2022/10/04 15:04:37;;;;;;;12.85;6.38;;;;;;;;;;4981543;28;20056;-65
2022/10/04 15:07:15;;;;;;;12.13;6.40;;;;;;;;;;4964701;28;20186;-65